Estación Meteorológica Peña el Pijo (Robertgarden) [ 08/20/17 13:44:37 CEST ]

Fecha Hora Presion(HPa) Temp (°C) Humedad % Rocio (°C) Viento ( m/s) Direccion Lluvia 1Hora(mm) Lluvia 24H(mm) LLuvia Total(mm)
2017-Jun-25 01:01:46 1013.200 17.9 53 8.1         1427.60
2017-Jun-25 02:01:43 1012.800 16.8 57 8.2         1427.60
2017-Jun-25 03:01:58 1012.400 16.3 59 8.3         1427.60
2017-Jun-25 04:01:56 1011.900 15.1 63 8.3         1427.60
2017-Jun-25 05:02:01 1011.900 14.4 66 8.1         1427.60
2017-Jun-25 06:01:57 1011.700 13.8 67 7.8         1427.60
2017-Jun-25 07:01:40 1011.700 13.9 67 7.8         1427.60
2017-Jun-25 08:01:38 1011.400 15.6 68 9.7         1427.60
2017-Jun-25 09:01:36 1011.300 21.8 57 12.9         1427.60
2017-Jun-25 10:01:29 1011.100 27.8 44 14.4         1427.60
2017-Jun-25 11:01:35 1011.300 29.2 35 12.1         1427.60
2017-Jun-25 12:01:48 1011.400 29.6 33 11.6         1427.60
2017-Jun-25 13:01:38 1011.000 32.3 29 12.0         1427.60
2017-Jun-25 14:01:28 1009.700 32.8 25 10.0         1427.60
2017-Jun-25 15:01:44 1009.700 31.3 31 12.1         1427.60
2017-Jun-25 16:02:09 1009.600 30.7 30 11.2         1427.60
2017-Jun-25 17:01:48 1009.700 31.3 29 11.1 0.5 NNW     1427.60
2017-Jun-25 18:01:42 1008.600 32.9 29 12.5 2.1 S     1427.60
2017-Jun-25 19:01:48 1010.300 27.9 35 10.9         1427.60
2017-Jun-25 20:01:51 1008.600 25.6 48 13.8         1427.60
2017-Jun-25 21:01:41 1008.400 23.5 51 12.8         1427.60
2017-Jun-25 22:01:46 1008.200 22.1 56 12.9 0.7 S     1427.60
2017-Jun-25 23:01:34 1008.800 21.3 57 12.4         1427.60

Temperatura Máxima:32°    Temperatura Mínima:13°
Presión Máxima:1013.200 Hpa    Presión Mínima:1008.200 Hpa


Volver